Time;durP1;ratioP1;P1;durP2;ratioP2;P2;SDS_P1;SDS_P2;PMS_P1;PMS_P2;Temp;Humidity;BMP_temperature;BMP_pressure;BME280_temperature;BME280_humidity;BME280_pressure;Samples;Min_cycle;Max_cycle;Signal;HPM_P1;HPM_P2
2021/07/22 00:02:01;;;;;;;;;;;;;;;17.65;66.24;100035.75;5116217;28;20397;-73
2021/07/22 00:04:30;;;;;;;;;;;;;;;17.38;66.80;100040.66;5116096;28;19928;-72
2021/07/22 00:06:58;;;;;;;;;;;;;;;17.49;67.10;100034.41;5116394;28;19977;-73
2021/07/22 00:09:29;;;;;;;;;;;;;;;17.60;66.67;100029.84;5115988;28;19963;-72
2021/07/22 00:11:57;;;;;;;;;;;;;;;17.78;66.03;100029.44;5115529;28;19924;-73
2021/07/22 00:14:28;;;;;;;;;;;;;;;17.66;66.24;100029.72;5116313;28;19923;-73
2021/07/22 00:16:57;;;;;;;;;;;;;;;17.68;66.19;100027.94;5115936;28;20439;-72
2021/07/22 00:19:26;;;;;;;;;;;;;;;17.72;66.21;100037.31;5115847;28;20018;-73
2021/07/22 00:21:54;;;;;;;;;;;;;;;17.72;65.95;100030.41;5116447;28;19924;-72
2021/07/22 00:24:23;;;;;;;;;;;;;;;17.53;66.39;100036.03;5116059;28;19923;-71
2021/07/22 00:26:53;;;;;;;;;;;;;;;17.56;66.54;100038.56;5115694;28;19955;-73
2021/07/22 00:29:22;;;;;;;;;;;;;;;17.32;67.00;100039.94;5115707;28;19927;-72
2021/07/22 00:31:57;;;;;;;;;;;;;;;17.26;67.36;100040.06;5097472;28;19923;-72
2021/07/22 00:34:26;;;;;;;;;;;;;;;17.28;67.79;100043.44;5115888;28;19931;-73
2021/07/22 00:36:55;;;;;;;;;;;;;;;16.90;67.84;100044.28;5115518;28;19930;-72
2021/07/22 00:39:24;;;;;;;;;;;;;;;16.77;68.69;100035.13;5115484;28;20297;-72
2021/07/22 00:41:55;;;;;;;;;;;;;;;16.78;69.04;100044.53;5115477;28;19931;-72
2021/07/22 00:44:24;;;;;;;;;;;;;;;16.74;69.46;100035.16;5115432;28;19930;-72
2021/07/22 00:46:53;;;;;;;;;;;;;;;16.89;69.39;100034.00;5115067;28;20369;-72
2021/07/22 00:49:23;;;;;;;;;;;;;;;17.07;69.19;100034.47;5131568;27;19923;-72
2021/07/22 00:51:52;;;;;;;;;;;;;;;17.11;68.75;100038.66;5114382;27;19976;-73
2021/07/22 00:54:23;;;;;;;;;;;;;;;17.05;68.87;100033.66;5097410;28;20015;-72
2021/07/22 00:56:52;;;;;;;;;;;;;;;17.00;68.96;100037.19;5115056;28;20304;-72
2021/07/22 00:59:22;;;;;;;;;;;;;;;16.95;69.03;100033.88;5115098;28;19923;-73
2021/07/22 01:01:53;;;;;;;;;;;;;;;16.71;69.24;100035.22;5131061;27;19963;-71
2021/07/22 01:04:21;;;;;;;;;;;;;;;16.73;69.81;100025.72;5114990;28;19925;-73
2021/07/22 01:06:50;;;;;;;;;;;;;;;16.74;69.91;100037.75;5130731;27;19924;-72
2021/07/22 01:09:19;;;;;;;;;;;;;;;16.63;70.00;100031.94;5115490;28;19923;-73
2021/07/22 01:11:55;;;;;;;;;;;;;;;16.51;70.32;100032.13;5115308;28;19927;-73
2021/07/22 01:14:27;;;;;;;;;;;;;;;16.46;70.49;100028.81;5114875;28;19928;-73
2021/07/22 01:17:10;;;;;;;;;;;;;;;16.48;70.55;100025.34;5130205;27;19930;-72
2021/07/22 01:19:50;;;;;;;;;;;;;;;16.60;70.99;100032.00;5114912;28;20377;-71
2021/07/22 01:22:20;;;;;;;;;;;;;;;16.63;70.35;100026.78;5114808;28;19951;-71
2021/07/22 01:24:49;;;;;;;;;;;;;;;16.66;70.59;100027.56;5096711;28;19924;-71
2021/07/22 01:27:19;;;;;;;;;;;;;;;16.90;70.00;100036.53;5114629;28;20404;-73
2021/07/22 01:29:52;;;;;;;;;;;;;;;17.02;69.27;100036.28;5114851;28;19924;-73
2021/07/22 01:32:21;;;;;;;;;;;;;;;17.00;68.80;100027.75;5114574;28;19924;-72
2021/07/22 01:34:52;;;;;;;;;;;;;;;17.08;68.88;100036.16;5096576;28;19924;-73
2021/07/22 01:37:26;;;;;;;;;;;;;;;17.11;68.34;100033.50;5096404;28;19934;-73
2021/07/22 01:39:55;;;;;;;;;;;;;;;16.95;69.02;100034.72;5114943;28;20026;-71
2021/07/22 01:42:25;;;;;;;;;;;;;;;16.76;69.15;100033.41;5115184;28;20437;-73
2021/07/22 01:44:54;;;;;;;;;;;;;;;16.59;69.59;100025.16;5096388;28;19967;-73
2021/07/22 01:47:23;;;;;;;;;;;;;;;16.51;69.97;100027.88;5095952;28;20279;-72
2021/07/22 01:49:52;;;;;;;;;;;;;;;16.65;69.89;100027.63;5114675;28;19946;-73
2021/07/22 01:52:21;;;;;;;;;;;;;;;16.74;69.80;100030.00;5114716;28;19924;-73
2021/07/22 01:54:53;;;;;;;;;;;;;;;16.74;69.99;100032.59;5114437;28;19977;-71
2021/07/22 01:57:23;;;;;;;;;;;;;;;16.76;69.83;100028.25;5096231;28;19924;-72
2021/07/22 01:59:54;;;;;;;;;;;;;;;16.71;69.92;100030.06;5114353;28;19957;-71
2021/07/22 02:02:23;;;;;;;;;;;;;;;16.61;69.61;100023.38;5114309;28;19924;-71
2021/07/22 02:04:54;;;;;;;;;;;;;;;16.60;70.33;100029.44;5096277;28;20286;-73
2021/07/22 02:07:23;;;;;;;;;;;;;;;16.69;69.93;100030.09;5130088;28;19924;-72
2021/07/22 02:10:00;;;;;;;;;;;;;;;16.68;69.78;100030.13;5114211;28;19924;-71
2021/07/22 02:12:29;;;;;;;;;;;;;;;16.73;69.80;100029.16;5114870;28;19931;-73
2021/07/22 02:15:04;;;;;;;;;;;;;;;16.83;69.81;100029.81;5130159;28;19923;-73
2021/07/22 02:17:33;;;;;;;;;;;;;;;16.87;69.63;100031.44;5114137;28;19971;-72
2021/07/22 02:20:02;;;;;;;;;;;;;;;16.83;69.68;100029.81;5114824;28;19924;-73
2021/07/22 02:22:33;;;;;;;;;;;;;;;16.74;69.84;100028.28;5130448;28;19923;-73
2021/07/22 02:25:23;;;;;;;;;;;;;;;16.57;70.23;100026.91;5095864;28;19930;-71
2021/07/22 02:27:57;;;;;;;;;;;;;;;16.52;70.22;100026.16;5096022;28;20373;-72
2021/07/22 02:30:30;;;;;;;;;;;;;;;16.36;70.52;100028.16;5114409;28;19966;-71
2021/07/22 02:32:59;;;;;;;;;;;;;;;16.38;70.71;100025.53;5096012;28;20023;-73
2021/07/22 02:35:28;;;;;;;;;;;;;;;16.40;70.98;100021.19;5117531;28;19924;-73
2021/07/22 02:38:08;;;;;;;;;;;;;;;16.35;71.20;100030.72;5118152;28;20373;-72
2021/07/22 02:40:39;;;;;;;;;;;;;;;16.33;71.25;100027.34;5133840;27;20022;-72
2021/07/22 02:43:09;;;;;;;;;;;;;;;16.39;71.00;100022.06;5117820;28;19923;-72
2021/07/22 02:45:38;;;;;;;;;;;;;;;16.37;71.28;100034.97;5117734;28;19927;-71
2021/07/22 02:48:09;;;;;;;;;;;;;;;16.40;71.18;100034.06;5133337;27;19959;-73
2021/07/22 02:50:39;;;;;;;;;;;;;;;16.52;71.04;100033.88;5118259;28;19976;-71
2021/07/22 02:53:09;;;;;;;;;;;;;;;16.59;70.89;100031.16;5099837;28;20366;-72
2021/07/22 02:55:50;;;;;;;;;;;;;;;16.71;70.45;100037.78;5117587;28;19924;-73
2021/07/22 02:58:19;;;;;;;;;;;;;;;16.70;70.25;100029.22;5117512;28;19924;-72
2021/07/22 03:00:49;;;;;;;;;;;;;;;16.56;70.12;100032.94;5099315;28;20030;-72
2021/07/22 03:03:19;;;;;;;;;;;;;;;16.52;70.98;100039.03;5117428;28;19924;-72
2021/07/22 03:05:48;;;;;;;;;;;;;;;16.44;70.68;100040.84;5133537;27;19924;-72
2021/07/22 03:08:21;;;;;;;;;;;;;;;16.53;70.69;100038.16;5099426;28;20373;-72
2021/07/22 03:10:52;;;;;;;;;;;;;;;16.58;70.59;100044.09;5098977;28;19924;-72
2021/07/22 03:13:22;;;;;;;;;;;;;;;16.63;70.44;100037.09;5117525;28;20423;-72
2021/07/22 03:15:51;;;;;;;;;;;;;;;16.57;70.25;100035.50;5099067;28;19930;-72
2021/07/22 03:18:31;;;;;;;;;;;;;;;16.35;70.96;100041.03;5117384;28;19968;-73
2021/07/22 03:21:02;;;;;;;;;;;;;;;16.41;70.95;100035.78;5099014;28;19924;-72
2021/07/22 03:23:33;;;;;;;;;;;;;;;16.34;71.15;100034.19;5133004;27;19924;-72
2021/07/22 03:26:05;;;;;;;;;;;;;;;16.43;71.01;100044.34;5117005;28;19946;-73
2021/07/22 03:28:41;;;;;;;;;;;;;;;16.56;71.20;100040.66;5117259;28;19923;-73
2021/07/22 03:31:36;;;;;;;;;;;;;;;16.33;70.74;100037.66;5113942;28;19928;-72
2021/07/22 03:34:13;;;;;;;;;;;;;;;16.41;70.99;100046.91;5116789;28;19924;-72
2021/07/22 03:36:50;;;;;;;;;;;;;;;16.36;71.12;100043.59;5098651;28;19923;-72
2021/07/22 03:39:20;;;;;;;;;;;;;;;16.28;71.21;100044.59;5098607;28;20381;-72
2021/07/22 03:41:50;;;;;;;;;;;;;;;16.15;71.46;100043.97;5116625;28;19924;-73
2021/07/22 03:44:30;;;;;;;;;;;;;;;16.29;71.79;100043.75;5116474;28;19924;-73
2021/07/22 03:46:58;;;;;;;;;;;;;;;16.44;71.71;100051.16;5116413;28;19927;-72
2021/07/22 03:49:27;;;;;;;;;;;;;;;16.55;71.44;100049.28;5098600;28;19928;-72
2021/07/22 03:51:59;;;;;;;;;;;;;;;16.65;71.39;100045.66;5116422;28;19924;-72
2021/07/22 03:54:39;;;;;;;;;;;;;;;16.81;70.72;100054.78;5098749;28;20440;-73
2021/07/22 03:57:09;;;;;;;;;;;;;;;16.93;70.54;100056.25;5117185;28;19974;-71
2021/07/22 03:59:38;;;;;;;;;;;;;;;16.97;70.24;100052.72;5132353;27;19935;-73
2021/07/22 04:02:07;;;;;;;;;;;;;;;16.98;69.94;100059.59;5116241;28;19938;-72
2021/07/22 04:04:41;;;;;;;;;;;;;;;16.95;69.80;100054.50;5116257;28;19969;-71
2021/07/22 04:07:12;;;;;;;;;;;;;;;16.95;69.75;100067.38;5116182;28;19948;-73
2021/07/22 04:09:58;;;;;;;;;;;;;;;17.03;69.67;100058.63;5116024;28;19966;-73
2021/07/22 04:12:39;;;;;;;;;;;;;;;17.06;69.21;100061.13;5116319;28;20350;-72
2021/07/22 04:15:24;;;;;;;;;;;;;;;17.08;69.31;100056.81;5114814;28;20333;-71
2021/07/22 04:18:03;;;;;;;;;;;;;;;17.13;68.99;100065.25;5115974;28;19931;-71
2021/07/22 04:20:44;;;;;;;;;;;;;;;17.25;68.66;100065.00;5115877;28;19924;-71
2021/07/22 04:23:23;;;;;;;;;;;;;;;17.34;68.55;100059.66;5116256;28;19927;-72
2021/07/22 04:26:15;;;;;;;;;;;;;;;17.30;68.07;100060.59;5107327;28;20015;-72
2021/07/22 04:29:08;;;;;;;;;;;;;;;17.31;68.16;100059.72;5105129;28;20338;-72
2021/07/22 04:31:40;;;;;;;;;;;;;;;17.41;68.10;100065.53;5115495;28;19930;-72
2021/07/22 04:34:21;;;;;;;;;;;;;;;17.54;67.82;100061.00;5115573;28;19969;-72
2021/07/22 04:37:04;;;;;;;;;;;;;;;17.52;67.76;100062.72;5115629;28;19924;-72
2021/07/22 04:39:43;;;;;;;;;;;;;;;17.67;67.46;100054.63;5115830;28;19924;-71
2021/07/22 04:42:38;;;;;;;;;;;;;;;17.85;67.31;100056.81;5106708;28;19924;-71
2021/07/22 04:45:19;;;;;;;;;;;;;;;18.00;66.92;100056.41;5115405;28;19928;-73
2021/07/22 04:48:02;;;;;;;;;;;;;;;18.17;66.57;100062.00;5115316;28;19923;-71
2021/07/22 04:50:51;;;;;;;;;;;;;;;18.35;65.92;100058.97;5086191;28;20390;-71
2021/07/22 04:53:43;;;;;;;;;;;;;;;18.48;65.66;100060.34;5112168;28;19924;-71
2021/07/22 04:56:12;;;;;;;;;;;;;;;18.49;64.79;100054.31;5115042;28;19954;-73
2021/07/22 04:58:41;;;;;;;;;;;;;;;18.52;64.52;100056.78;5096978;28;19927;-71
2021/07/22 05:01:23;;;;;;;;;;;;;;;18.57;64.14;100054.09;5115477;28;19931;-71
2021/07/22 05:03:53;;;;;;;;;;;;;;;18.66;64.01;100057.28;5115101;28;19946;-71
2021/07/22 05:06:30;;;;;;;;;;;;;;;18.83;63.76;100055.94;5115669;28;19924;-71
2021/07/22 05:09:13;;;;;;;;;;;;;;;18.95;63.30;100050.44;5114998;28;19923;-71
2021/07/22 05:12:05;;;;;;;;;;;;;;;19.19;63.10;100054.91;5095000;28;19923;-72
2021/07/22 05:14:44;;;;;;;;;;;;;;;19.34;62.67;100054.41;5115304;28;19969;-73
2021/07/22 05:17:26;;;;;;;;;;;;;;;19.50;62.05;100052.25;5115485;28;20018;-72
2021/07/22 05:20:07;;;;;;;;;;;;;;;19.51;61.73;100057.38;5115149;28;19923;-72
2021/07/22 05:22:47;;;;;;;;;;;;;;;19.66;61.67;100062.06;5114756;28;19930;-71
2021/07/22 05:25:31;;;;;;;;;;;;;;;19.72;61.27;100056.72;5096556;28;20407;-72
2021/07/22 05:28:14;;;;;;;;;;;;;;;19.90;61.22;100050.09;5096637;28;20385;-72
2021/07/22 05:30:56;;;;;;;;;;;;;;;20.04;60.58;100059.09;5114579;28;20382;-71
2021/07/22 05:33:37;;;;;;;;;;;;;;;20.15;60.16;100052.72;5115000;28;19923;-72
2021/07/22 05:36:17;;;;;;;;;;;;;;;20.13;59.89;100051.91;5114604;28;20396;-72
2021/07/22 05:39:00;;;;;;;;;;;;;;;20.05;59.72;100054.75;5096763;28;20011;-71
2021/07/22 05:41:29;;;;;;;;;;;;;;;20.00;59.72;100057.50;5114431;28;20335;-71
2021/07/22 05:43:58;;;;;;;;;;;;;;;20.13;59.89;100057.09;5114411;28;19924;-70
2021/07/22 05:46:27;;;;;;;;;;;;;;;20.23;59.75;100055.94;5114382;28;20289;-71
2021/07/22 05:48:57;;;;;;;;;;;;;;;20.23;59.87;100055.94;5114275;28;19924;-72
2021/07/22 05:51:25;;;;;;;;;;;;;;;20.30;59.78;100063.44;5114743;28;20027;-72
2021/07/22 05:53:54;;;;;;;;;;;;;;;20.37;59.77;100058.91;5114245;28;19928;-72
2021/07/22 05:56:23;;;;;;;;;;;;;;;20.53;59.68;100065.25;5114329;28;19924;-71
2021/07/22 05:58:53;;;;;;;;;;;;;;;20.71;59.32;100067.16;5114265;28;20349;-72
2021/07/22 06:01:22;;;;;;;;;;;;;;;20.75;59.10;100068.78;5114356;28;19923;-72
2021/07/22 06:03:51;;;;;;;;;;;;;;;20.78;59.41;100068.63;5114191;28;19969;-71
2021/07/22 06:06:21;;;;;;;;;;;;;;;20.88;59.30;100062.22;5114208;28;19924;-71
2021/07/22 06:08:51;;;;;;;;;;;;;;;21.03;58.66;100064.25;5115194;28;19924;-72
2021/07/22 06:11:19;;;;;;;;;;;;;;;21.21;58.70;100063.59;5118364;28;20031;-71
2021/07/22 06:13:58;;;;;;;;;;;;;;;21.38;58.04;100059.53;5118389;28;20393;-70
2021/07/22 06:16:27;;;;;;;;;;;;;;;21.36;57.74;100060.41;5118293;28;19924;-71
2021/07/22 06:18:56;;;;;;;;;;;;;;;21.43;57.62;100063.63;5117655;28;20381;-70
2021/07/22 06:21:27;;;;;;;;;;;;;;;21.49;57.53;100059.94;5118182;28;19924;-71
2021/07/22 06:23:56;;;;;;;;;;;;;;;21.66;57.22;100055.78;5118134;28;19969;-72
2021/07/22 06:26:24;;;;;;;;;;;;;;;21.74;56.72;100058.91;5118011;28;19924;-71
2021/07/22 06:28:53;;;;;;;;;;;;;;;21.73;56.47;100058.97;5118692;28;20309;-71
2021/07/22 06:31:22;;;;;;;;;;;;;;;21.91;56.52;100060.84;5117997;28;20026;-71
2021/07/22 06:33:50;;;;;;;;;;;;;;;22.08;56.20;100052.34;5117929;28;20015;-71
2021/07/22 06:36:19;;;;;;;;;;;;;;;22.09;55.86;100054.91;5117860;28;20011;-72
2021/07/22 06:38:49;;;;;;;;;;;;;;;22.18;56.02;100059.72;5117780;28;20385;-71
2021/07/22 06:41:19;;;;;;;;;;;;;;;22.30;55.40;100058.34;5118087;28;20353;-71
2021/07/22 06:43:49;;;;;;;;;;;;;;;22.30;54.89;100053.16;5117983;28;19935;-71
2021/07/22 06:46:19;;;;;;;;;;;;;;;22.42;55.26;100053.47;5133731;27;19932;-71
2021/07/22 06:48:49;;;;;;;;;;;;;;;22.59;54.81;100055.34;5117671;28;19923;-71
2021/07/22 06:51:18;;;;;;;;;;;;;;;22.60;54.44;100059.66;5117550;28;20501;-70
2021/07/22 06:53:47;;;;;;;;;;;;;;;22.64;54.73;100054.28;5133483;27;19924;-71
2021/07/22 06:56:17;;;;;;;;;;;;;;;22.81;54.23;100050.06;5117553;28;20396;-72
2021/07/22 06:58:48;;;;;;;;;;;;;;;22.98;53.38;100053.63;5118189;28;19951;-71
2021/07/22 07:01:16;;;;;;;;;;;;;;;22.99;52.68;100060.50;5117416;28;20301;-71
2021/07/22 07:03:45;;;;;;;;;;;;;;;23.10;52.36;100052.19;5117376;28;19931;-71
2021/07/22 07:06:13;;;;;;;;;;;;;;;23.32;52.16;100052.91;5117447;28;19924;-70
2021/07/22 07:08:42;;;;;;;;;;;;;;;23.37;50.79;100055.31;5117281;28;19963;-70
2021/07/22 07:11:11;;;;;;;;;;;;;;;23.41;50.31;100054.25;5117198;28;19924;-70
2021/07/22 07:13:41;;;;;;;;;;;;;;;23.63;50.18;100055.78;5117047;28;20039;-71
2021/07/22 07:16:09;;;;;;;;;;;;;;;23.70;49.59;100054.56;5117808;28;19931;-71
2021/07/22 07:18:40;;;;;;;;;;;;;;;23.67;49.72;100052.09;5117054;28;19927;-70
2021/07/22 07:21:14;;;;;;;;;;;;;;;23.67;49.65;100044.28;5117255;28;19923;-71
2021/07/22 07:23:42;;;;;;;;;;;;;;;23.77;49.82;100045.53;5116928;28;19959;-71
2021/07/22 07:26:12;;;;;;;;;;;;;;;23.93;49.77;100050.81;5116527;28;19924;-70
2021/07/22 07:28:42;;;;;;;;;;;;;;;23.99;49.31;100038.31;5116506;28;19924;-70
2021/07/22 07:31:11;;;;;;;;;;;;;;;24.05;48.79;100045.00;5116711;28;20335;-71
2021/07/22 07:33:39;;;;;;;;;;;;;;;23.98;49.34;100038.41;5116765;28;19963;-71
2021/07/22 07:36:08;;;;;;;;;;;;;;;24.12;49.01;100040.34;5116568;28;19924;-70
2021/07/22 07:38:37;;;;;;;;;;;;;;;24.21;48.68;100039.91;5116632;28;19924;-71
2021/07/22 07:41:05;;;;;;;;;;;;;;;24.23;48.55;100040.66;5116698;28;20018;-71
2021/07/22 07:43:34;;;;;;;;;;;;;;;24.19;48.88;100037.34;5116824;28;20033;-71
2021/07/22 07:46:04;;;;;;;;;;;;;;;24.41;48.79;100032.72;5116561;28;19931;-71
2021/07/22 07:48:33;;;;;;;;;;;;;;;24.56;48.53;100031.09;5116287;28;19924;-71
2021/07/22 07:51:05;;;;;;;;;;;;;;;24.70;48.18;100036.41;5116804;28;19923;-71
2021/07/22 07:53:34;;;;;;;;;;;;;;;24.83;47.17;100034.88;5116508;28;20018;-71
2021/07/22 07:56:03;;;;;;;;;;;;;;;24.94;47.21;100035.16;5116354;28;20305;-71
2021/07/22 07:58:31;;;;;;;;;;;;;;;24.98;46.78;100036.66;5116379;28;19923;-71
2021/07/22 08:01:00;;;;;;;;;;;;;;;24.92;46.31;100030.94;5116261;28;20010;-70
2021/07/22 08:03:30;;;;;;;;;;;;;;;24.82;46.61;100030.59;5116228;28;19932;-71
2021/07/22 08:05:59;;;;;;;;;;;;;;;24.88;46.59;100032.03;5115913;28;19946;-71
2021/07/22 08:08:27;;;;;;;;;;;;;;;24.92;47.11;100034.38;5115818;28;19924;-71
2021/07/22 08:10:58;;;;;;;;;;;;;;;24.75;47.30;100026.56;5115844;28;19924;-71
2021/07/22 08:13:28;;;;;;;;;;;;;;;24.41;47.95;100027.50;5115909;28;19959;-71
2021/07/22 08:15:56;;;;;;;;;;;;;;;24.69;48.19;100036.50;5115911;28;19965;-71
2021/07/22 08:18:25;;;;;;;;;;;;;;;24.90;47.46;100025.81;5115884;28;19950;-70
2021/07/22 08:20:55;;;;;;;;;;;;;;;25.14;47.19;100023.63;5116188;28;20365;-71
2021/07/22 08:23:24;;;;;;;;;;;;;;;25.10;47.46;100033.38;5115947;28;19973;-71
2021/07/22 08:25:52;;;;;;;;;;;;;;;25.29;47.16;100022.75;5097591;28;19962;-72
2021/07/22 08:28:21;;;;;;;;;;;;;;;25.50;46.91;100023.38;5115329;28;19928;-72
2021/07/22 08:30:49;;;;;;;;;;;;;;;25.54;46.61;100017.03;5115409;28;20018;-71
2021/07/22 08:33:19;;;;;;;;;;;;;;;25.65;46.93;100022.50;5115154;28;19924;-72
2021/07/22 08:35:47;;;;;;;;;;;;;;;25.66;46.63;100008.50;5115535;28;20006;-72
2021/07/22 08:38:17;;;;;;;;;;;;;;;25.47;46.62;100015.69;5115752;28;19953;-71
2021/07/22 08:40:46;;;;;;;;;;;;;;;25.58;46.65;100018.56;5115438;28;19924;-72
2021/07/22 08:43:15;;;;;;;;;;;;;;;24.98;47.37;100018.38;5115358;28;19923;-72
2021/07/22 08:45:47;;;;;;;;;;;;;;;25.10;47.89;100012.47;5115273;28;19924;-72
2021/07/22 08:48:18;;;;;;;;;;;;;;;25.47;47.67;100011.31;5114917;28;19924;-73
2021/07/22 08:50:47;;;;;;;;;;;;;;;25.37;47.02;100010.09;5115207;28;19924;-72
2021/07/22 08:53:20;;;;;;;;;;;;;;;25.28;47.04;100011.47;5114988;28;20378;-72
2021/07/22 08:55:50;;;;;;;;;;;;;;;25.12;47.10;100020.25;5115556;28;19924;-72
2021/07/22 08:58:18;;;;;;;;;;;;;;;25.20;47.29;100013.66;5115039;28;19931;-72
2021/07/22 09:00:47;;;;;;;;;;;;;;;25.41;47.97;100009.00;5115067;28;20003;-72
2021/07/22 09:03:18;;;;;;;;;;;;;;;25.62;47.58;100001.75;5115490;28;19924;-72
2021/07/22 09:05:46;;;;;;;;;;;;;;;25.69;46.89;100005.72;5114971;28;19968;-72
2021/07/22 09:08:15;;;;;;;;;;;;;;;25.93;47.85;99999.06;5114982;28;19924;-72
2021/07/22 09:11:04;;;;;;;;;;;;;;;26.24;47.29;99996.34;5114790;28;20464;-72
2021/07/22 09:13:35;;;;;;;;;;;;;;;26.41;46.52;99996.19;5114727;28;19923;-72
2021/07/22 09:16:04;;;;;;;;;;;;;;;26.65;45.87;99993.81;5114858;28;19925;-72
2021/07/22 09:18:35;;;;;;;;;;;;;;;26.68;44.80;99995.41;5114796;28;19966;-72
2021/07/22 09:21:15;;;;;;;;;;;;;;;26.82;44.95;99990.19;5114822;28;19923;-72
2021/07/22 09:24:02;;;;;;;;;;;;;;;26.81;44.51;99991.97;5114838;28;19924;-72
2021/07/22 09:26:33;;;;;;;;;;;;;;;26.89;44.90;99991.50;5114735;28;19923;-72
2021/07/22 09:29:03;;;;;;;;;;;;;;;27.09;44.43;99988.47;5115070;28;19928;-72
2021/07/22 09:31:32;;;;;;;;;;;;;;;26.87;44.39;99993.38;5114881;28;19992;-72
2021/07/22 09:34:00;;;;;;;;;;;;;;;26.82;44.64;99995.44;5114473;28;19924;-72
2021/07/22 09:36:33;;;;;;;;;;;;;;;26.48;44.94;99986.16;5114538;28;20042;-72
2021/07/22 09:39:13;;;;;;;;;;;;;;;26.60;45.27;99986.25;5114500;28;19934;-72
2021/07/22 09:41:44;;;;;;;;;;;;;;;27.05;44.09;99987.81;5114512;28;19935;-72
2021/07/22 09:44:23;;;;;;;;;;;;;;;27.36;43.57;99989.28;5114717;28;19972;-72
2021/07/22 09:46:52;;;;;;;;;;;;;;;27.43;42.83;99987.13;5114624;28;19935;-72
2021/07/22 09:49:20;;;;;;;;;;;;;;;27.32;42.94;99990.44;5114521;28;19970;-72
2021/07/22 09:51:49;;;;;;;;;;;;;;;27.19;44.02;99984.28;5114344;28;20019;-72
2021/07/22 09:54:17;;;;;;;;;;;;;;;26.90;43.78;99980.09;5114511;28;19946;-71
2021/07/22 09:56:54;;;;;;;;;;;;;;;26.55;44.34;99977.00;5114229;28;19931;-72
2021/07/22 09:59:24;;;;;;;;;;;;;;;26.38;44.24;99975.41;5114484;28;19924;-71
2021/07/22 10:01:54;;;;;;;;;;;;;;;26.14;44.37;99986.50;5113129;28;20276;-71
2021/07/22 10:04:24;;;;;;;;;;;;;;;25.93;45.06;99983.38;5114380;28;19956;-71
2021/07/22 10:06:55;;;;;;;;;;;;;;;25.81;45.67;99971.00;5114367;28;19923;-72
2021/07/22 10:09:25;;;;;;;;;;;;;;;25.37;46.57;99976.13;5114379;28;19924;-71
2021/07/22 10:11:55;;;;;;;;;;;;;;;25.46;46.94;99973.03;5113157;28;19992;-71
2021/07/22 10:14:24;;;;;;;;;;;;;;;25.61;46.32;99960.84;5114083;28;19924;-71
2021/07/22 10:16:55;;;;;;;;;;;;;;;25.67;46.40;99976.19;5114129;28;19923;-71
2021/07/22 10:19:24;;;;;;;;;;;;;;;25.49;46.67;99969.38;5114244;28;20374;-71
2021/07/22 10:21:52;;;;;;;;;;;;;;;25.40;46.62;99964.66;5114269;28;19927;-71
2021/07/22 10:24:24;;;;;;;;;;;;;;;25.27;47.27;99967.97;5114103;28;20326;-71
2021/07/22 10:26:55;;;;;;;;;;;;;;;25.46;48.57;99959.13;5114223;28;20022;-70
2021/07/22 10:29:25;;;;;;;;;;;;;;;25.72;47.19;99958.47;5113992;28;20023;-71
2021/07/22 10:31:54;;;;;;;;;;;;;;;25.54;47.17;99954.28;5113888;28;20356;-71
2021/07/22 10:34:24;;;;;;;;;;;;;;;25.57;47.25;99954.13;5112396;28;19927;-71
2021/07/22 10:36:52;;;;;;;;;;;;;;;25.60;46.93;99949.53;5113799;28;20022;-71
2021/07/22 10:39:36;;;;;;;;;;;;;;;25.58;46.93;99955.81;5113666;28;20435;-71
2021/07/22 10:42:06;;;;;;;;;;;;;;;25.62;46.46;99954.69;5113773;28;19967;-71
2021/07/22 10:44:35;;;;;;;;;;;;;;;25.95;45.29;99950.09;5113761;28;20027;-71
2021/07/22 10:47:05;;;;;;;;;;;;;;;26.36;44.25;99951.09;5113509;28;19923;-71
2021/07/22 10:49:39;;;;;;;;;;;;;;;26.77;43.83;99950.34;5114266;28;19939;-71
2021/07/22 10:52:09;;;;;;;;;;;;;;;26.57;43.65;99944.53;5113433;28;19924;-71
2021/07/22 10:54:51;;;;;;;;;;;;;;;26.53;43.56;99943.06;5114551;28;20032;-70
2021/07/22 10:57:31;;;;;;;;;;;;;;;26.60;43.49;99936.50;5117568;28;19924;-71
2021/07/22 11:00:04;;;;;;;;;;;;;;;26.45;43.92;99939.22;5118030;28;19930;-71
2021/07/22 11:02:43;;;;;;;;;;;;;;;26.30;44.14;99938.38;5117757;28;20304;-71
2021/07/22 11:05:13;;;;;;;;;;;;;;;26.27;43.25;99945.59;5117395;28;19928;-71
2021/07/22 11:07:42;;;;;;;;;;;;;;;26.35;43.61;99935.47;5117344;28;19927;-71
2021/07/22 11:10:35;;;;;;;;;;;;;;;26.27;42.82;99941.19;5117222;28;19930;-71
2021/07/22 11:13:04;;;;;;;;;;;;;;;26.39;42.97;99936.97;5117107;28;19924;-71
2021/07/22 11:15:45;;;;;;;;;;;;;;;26.34;43.34;99937.28;5117160;28;19970;-70
2021/07/22 11:18:28;;;;;;;;;;;;;;;26.42;43.68;99934.16;5117214;28;19951;-71
2021/07/22 11:21:04;;;;;;;;;;;;;;;26.65;43.16;99936.22;5105593;28;20470;-71
2021/07/22 11:23:33;;;;;;;;;;;;;;;26.69;42.34;99935.06;5117060;28;19934;-71
2021/07/22 11:26:02;;;;;;;;;;;;;;;26.25;43.19;99927.34;5117150;28;19923;-71
2021/07/22 11:28:31;;;;;;;;;;;;;;;26.22;42.72;99938.03;5116943;28;19930;-71
2021/07/22 11:31:04;;;;;;;;;;;;;;;26.32;43.57;99928.63;5116913;27;20305;-71
2021/07/22 11:33:33;;;;;;;;;;;;;;;26.39;43.92;99935.22;5116795;28;19970;-71
2021/07/22 11:36:05;;;;;;;;;;;;;;;26.39;43.53;99940.44;5115454;28;19977;-71
2021/07/22 11:38:34;;;;;;;;;;;;;;;26.22;43.89;99938.03;5116643;28;19972;-72
2021/07/22 11:41:10;;;;;;;;;;;;;;;26.20;43.86;99928.56;5117146;28;19950;-72
2021/07/22 11:43:39;;;;;;;;;;;;;;;26.24;43.87;99925.66;5116891;28;19934;-72
2021/07/22 11:46:09;;;;;;;;;;;;;;;26.25;43.50;99927.34;5116688;28;20027;-72
2021/07/22 11:48:38;;;;;;;;;;;;;;;26.26;44.15;99915.09;5116418;28;19923;-72
2021/07/22 11:51:09;;;;;;;;;;;;;;;26.27;44.28;99924.66;5116616;28;19928;-72
2021/07/22 11:53:38;;;;;;;;;;;;;;;26.30;43.84;99914.81;5116659;28;20329;-72
2021/07/22 11:56:11;;;;;;;;;;;;;;;26.37;43.69;99917.91;5116099;28;19924;-72
2021/07/22 11:58:40;;;;;;;;;;;;;;;26.40;45.41;99915.94;5102307;28;19930;-72
2021/07/22 12:01:12;;;;;;;;;;;;;;;26.39;44.06;99914.28;5096590;28;19925;-72
2021/07/22 12:03:41;;;;;;;;;;;;;;;26.42;44.51;99903.59;5104675;28;19963;-69
2021/07/22 12:06:11;;;;;;;;;;;;;;;26.44;43.69;99912.19;5101764;28;20014;-67
2021/07/22 12:08:39;;;;;;;;;;;;;;;26.42;44.67;99908.81;5095188;28;19928;-68
2021/07/22 12:11:08;;;;;;;;;;;;;;;26.44;45.44;99906.94;5101371;28;19924;-68
2021/07/22 12:13:52;;;;;;;;;;;;;;;26.53;45.57;99898.53;5099839;28;20297;-69
2021/07/22 12:16:21;;;;;;;;;;;;;;;26.99;45.20;99896.50;5114305;28;19924;-70
2021/07/22 12:18:50;;;;;;;;;;;;;;;27.27;44.88;99898.13;5116199;28;20377;-71
2021/07/22 12:21:21;;;;;;;;;;;;;;;27.59;43.54;99894.25;5115812;28;20010;-68
2021/07/22 12:23:52;;;;;;;;;;;;;;;27.86;41.71;99892.38;5116232;28;19949;-68
2021/07/22 12:26:21;;;;;;;;;;;;;;;27.80;41.30;99892.81;5115831;28;19927;-68
2021/07/22 12:29:01;;;;;;;;;;;;;;;28.09;40.72;99887.38;5115830;28;20007;-68
2021/07/22 12:31:37;;;;;;;;;;;;;;;28.02;39.57;99893.97;5115701;28;19923;-69
2021/07/22 12:34:06;;;;;;;;;;;;;;;28.14;40.25;99890.50;5115987;28;19928;-70
2021/07/22 12:36:37;;;;;;;;;;;;;;;28.46;40.36;99876.78;5115493;28;19932;-71
2021/07/22 12:39:10;;;;;;;;;;;;;;;28.58;39.62;99880.31;5115603;28;19924;-70
2021/07/22 12:41:39;;;;;;;;;;;;;;;28.84;40.41;99876.69;5115516;28;19931;-69
2021/07/22 12:44:08;;;;;;;;;;;;;;;28.75;38.41;99877.34;5115419;28;19923;-71
2021/07/22 12:46:38;;;;;;;;;;;;;;;28.55;38.22;99875.31;5116002;28;19924;-71
2021/07/22 12:49:06;;;;;;;;;;;;;;;27.76;39.20;99867.69;5115154;28;19924;-70
2021/07/22 12:51:37;;;;;;;;;;;;;;;27.72;39.76;99874.09;5115287;28;19932;-68
2021/07/22 12:54:13;;;;;;;;;;;;;;;27.81;40.04;99856.91;5115660;28;19935;-69
2021/07/22 12:56:44;;;;;;;;;;;;;;;27.93;39.27;99862.13;5115257;28;19924;-70
2021/07/22 12:59:14;;;;;;;;;;;;;;;27.76;39.56;99851.94;5115256;28;20446;-68
2021/07/22 13:01:44;;;;;;;;;;;;;;;28.08;40.17;99854.16;5115112;28;19924;-70
2021/07/22 13:04:13;;;;;;;;;;;;;;;28.50;40.34;99851.16;5115043;28;19924;-70
2021/07/22 13:06:43;;;;;;;;;;;;;;;28.63;39.86;99846.72;5115043;28;19931;-70